Terminal Aerodrome Forecast
Issued by NWS Wilmington, OH

Current Version | Previous Version | Graphics & Text | Print | Product List | Glossary On
Versions: 1 2 3 4 5 6 7 8 9 10 11 12 13
000
FTUS41 KILN 220520
TAFDAY
TAF
KDAY 220520Z 2206/2306 36008KT P6SM VCSH OVC070
     FM220800 02009KT P6SM OVC080
     FM221800 04012KT P6SM BKN100=

USA.gov is the U.S. government's official web portal to all federal, state and local government web resources and services.